sensor_id;sensor_type;location;lat;lon;timestamp;P1;P2;P0
62631;PMS5003;48703;51.248;-0.546;2022-09-01T00:00:29;5.76;4.61;
62631;PMS5003;48703;51.248;-0.546;2022-09-01T00:03:31;4.99;4.21;
62631;PMS5003;48703;51.248;-0.546;2022-09-01T00:06:32;5.06;4.56;
62631;PMS5003;48703;51.248;-0.546;2022-09-01T00:09:34;4.39;3.61;
62631;PMS5003;48703;51.248;-0.546;2022-09-01T00:12:36;3.87;3.54;
62631;PMS5003;48703;51.248;-0.546;2022-09-01T00:15:37;4.47;3.74;
62631;PMS5003;48703;51.248;-0.546;2022-09-01T00:18:38;3.34;3.34;
62631;PMS5003;48703;51.248;-0.546;2022-09-01T00:21:41;3.77;3.77;
62631;PMS5003;48703;51.248;-0.546;2022-09-01T00:24:41;5.13;4.69;
62631;PMS5003;48703;51.248;-0.546;2022-09-01T00:27:43;4.96;4.44;
62631;PMS5003;48703;51.248;-0.546;2022-09-01T00:30:44;4.21;3.79;
62631;PMS5003;48703;51.248;-0.546;2022-09-01T00:33:46;3.97;3.76;
62631;PMS5003;48703;51.248;-0.546;2022-09-01T00:36:47;3.66;3.31;
62631;PMS5003;48703;51.248;-0.546;2022-09-01T00:39:49;3.30;3.09;
62631;PMS5003;48703;51.248;-0.546;2022-09-01T00:42:50;3.79;3.40;
62631;PMS5003;48703;51.248;-0.546;2022-09-01T00:45:52;4.17;3.74;
62631;PMS5003;48703;51.248;-0.546;2022-09-01T00:48:54;3.69;2.93;
62631;PMS5003;48703;51.248;-0.546;2022-09-01T00:51:55;3.70;2.90;
62631;PMS5003;48703;51.248;-0.546;2022-09-01T00:54:56;3.84;3.84;
62631;PMS5003;48703;51.248;-0.546;2022-09-01T00:57:58;4.17;3.39;
62631;PMS5003;48703;51.248;-0.546;2022-09-01T01:00:59;4.27;3.54;
62631;PMS5003;48703;51.248;-0.546;2022-09-01T01:04:00;4.74;4.54;
62631;PMS5003;48703;51.248;-0.546;2022-09-01T01:07:02;5.33;4.81;
62631;PMS5003;48703;51.248;-0.546;2022-09-01T01:10:03;4.36;4.36;
62631;PMS5003;48703;51.248;-0.546;2022-09-01T01:13:05;5.03;4.26;
62631;PMS5003;48703;51.248;-0.546;2022-09-01T01:16:06;3.60;3.60;
62631;PMS5003;48703;51.248;-0.546;2022-09-01T01:19:08;3.10;3.10;
62631;PMS5003;48703;51.248;-0.546;2022-09-01T01:22:13;3.74;3.46;
62631;PMS5003;48703;51.248;-0.546;2022-09-01T01:25:10;3.40;2.97;
62631;PMS5003;48703;51.248;-0.546;2022-09-01T01:28:12;3.31;3.10;
62631;PMS5003;48703;51.248;-0.546;2022-09-01T01:31:14;4.61;3.94;
62631;PMS5003;48703;51.248;-0.546;2022-09-01T01:34:14;3.81;3.43;
62631;PMS5003;48703;51.248;-0.546;2022-09-01T01:37:16;3.74;3.74;
62631;PMS5003;48703;51.248;-0.546;2022-09-01T01:40:18;3.76;3.61;
62631;PMS5003;48703;51.248;-0.546;2022-09-01T01:43:19;4.63;3.90;
62631;PMS5003;48703;51.248;-0.546;2022-09-01T01:46:21;3.81;3.81;
62631;PMS5003;48703;51.248;-0.546;2022-09-01T01:49:23;4.40;4.01;
62631;PMS5003;48703;51.248;-0.546;2022-09-01T01:52:23;4.14;3.76;
62631;PMS5003;48703;51.248;-0.546;2022-09-01T01:55:25;3.66;3.00;
62631;PMS5003;48703;51.248;-0.546;2022-09-01T01:58:26;3.86;3.80;
62631;PMS5003;48703;51.248;-0.546;2022-09-01T02:01:28;4.01;3.37;
62631;PMS5003;48703;51.248;-0.546;2022-09-01T02:04:29;4.46;4.03;
62631;PMS5003;48703;51.248;-0.546;2022-09-01T02:07:31;3.96;3.96;
62631;PMS5003;48703;51.248;-0.546;2022-09-01T02:10:33;3.77;3.77;
62631;PMS5003;48703;51.248;-0.546;2022-09-01T02:13:34;3.99;3.39;
62631;PMS5003;48703;51.248;-0.546;2022-09-01T02:16:35;4.23;3.27;
62631;PMS5003;48703;51.248;-0.546;2022-09-01T02:19:37;5.06;4.14;
62631;PMS5003;48703;51.248;-0.546;2022-09-01T02:22:38;3.39;3.09;
62631;PMS5003;48703;51.248;-0.546;2022-09-01T02:25:41;4.16;3.29;
62631;PMS5003;48703;51.248;-0.546;2022-09-01T02:28:41;5.61;4.48;
62631;PMS5003;48703;51.248;-0.546;2022-09-01T02:31:43;6.29;4.20;
62631;PMS5003;48703;51.248;-0.546;2022-09-01T02:34:44;4.66;3.81;
62631;PMS5003;48703;51.248;-0.546;2022-09-01T02:37:45;4.10;3.77;
62631;PMS5003;48703;51.248;-0.546;2022-09-01T02:40:47;5.59;4.03;
62631;PMS5003;48703;51.248;-0.546;2022-09-01T02:43:48;4.30;3.63;
62631;PMS5003;48703;51.248;-0.546;2022-09-01T02:46:50;4.10;4.10;
62631;PMS5003;48703;51.248;-0.546;2022-09-01T02:49:51;3.23;2.64;
62631;PMS5003;48703;51.248;-0.546;2022-09-01T02:52:53;3.83;2.77;
62631;PMS5003;48703;51.248;-0.546;2022-09-01T02:55:54;4.73;4.73;
62631;PMS5003;48703;51.248;-0.546;2022-09-01T02:58:56;3.23;3.23;
62631;PMS5003;48703;51.248;-0.546;2022-09-01T03:01:57;3.37;3.37;
62631;PMS5003;48703;51.248;-0.546;2022-09-01T03:04:59;3.46;3.46;
62631;PMS5003;48703;51.248;-0.546;2022-09-01T03:08:01;4.50;3.67;
62631;PMS5003;48703;51.248;-0.546;2022-09-01T03:11:02;4.31;4.10;
62631;PMS5003;48703;51.248;-0.546;2022-09-01T03:14:03;3.60;3.37;
62631;PMS5003;48703;51.248;-0.546;2022-09-01T03:17:05;3.64;3.64;
62631;PMS5003;48703;51.248;-0.546;2022-09-01T03:20:06;3.86;3.86;
62631;PMS5003;48703;51.248;-0.546;2022-09-01T03:23:09;2.80;2.80;
62631;PMS5003;48703;51.248;-0.546;2022-09-01T03:26:09;3.34;3.29;
62631;PMS5003;48703;51.248;-0.546;2022-09-01T03:29:11;5.10;3.94;
62631;PMS5003;48703;51.248;-0.546;2022-09-01T03:32:12;3.63;3.60;
62631;PMS5003;48703;51.248;-0.546;2022-09-01T03:35:14;4.60;4.36;
62631;PMS5003;48703;51.248;-0.546;2022-09-01T03:38:15;4.09;3.23;
62631;PMS5003;48703;51.248;-0.546;2022-09-01T03:41:17;3.87;2.97;
62631;PMS5003;48703;51.248;-0.546;2022-09-01T03:44:18;4.00;3.97;
62631;PMS5003;48703;51.248;-0.546;2022-09-01T03:47:20;3.87;3.87;
62631;PMS5003;48703;51.248;-0.546;2022-09-01T03:50:22;4.03;3.66;
62631;PMS5003;48703;51.248;-0.546;2022-09-01T03:53:23;4.21;3.80;
62631;PMS5003;48703;51.248;-0.546;2022-09-01T03:56:25;4.47;3.87;
62631;PMS5003;48703;51.248;-0.546;2022-09-01T03:59:26;3.91;3.91;
62631;PMS5003;48703;51.248;-0.546;2022-09-01T04:02:27;3.61;3.33;
62631;PMS5003;48703;51.248;-0.546;2022-09-01T04:05:30;6.16;5.39;
62631;PMS5003;48703;51.248;-0.546;2022-09-01T04:08:31;3.19;3.19;
62631;PMS5003;48703;51.248;-0.546;2022-09-01T04:11:32;4.26;3.11;
62631;PMS5003;48703;51.248;-0.546;2022-09-01T04:14:34;4.73;4.21;
62631;PMS5003;48703;51.248;-0.546;2022-09-01T04:17:35;3.96;3.66;
62631;PMS5003;48703;51.248;-0.546;2022-09-01T04:20:37;2.94;2.91;
62631;PMS5003;48703;51.248;-0.546;2022-09-01T04:23:38;3.63;3.63;
62631;PMS5003;48703;51.248;-0.546;2022-09-01T04:26:40;3.47;3.41;
62631;PMS5003;48703;51.248;-0.546;2022-09-01T04:29:41;4.69;3.91;
62631;PMS5003;48703;51.248;-0.546;2022-09-01T04:32:42;3.49;3.49;
62631;PMS5003;48703;51.248;-0.546;2022-09-01T04:35:44;3.73;3.47;
62631;PMS5003;48703;51.248;-0.546;2022-09-01T04:38:45;3.39;3.39;
62631;PMS5003;48703;51.248;-0.546;2022-09-01T04:41:47;3.66;3.36;
62631;PMS5003;48703;51.248;-0.546;2022-09-01T04:44:48;5.01;4.29;
62631;PMS5003;48703;51.248;-0.546;2022-09-01T04:47:50;5.24;3.86;
62631;PMS5003;48703;51.248;-0.546;2022-09-01T04:50:51;4.90;4.54;
62631;PMS5003;48703;51.248;-0.546;2022-09-01T04:53:53;4.54;4.31;
62631;PMS5003;48703;51.248;-0.546;2022-09-01T04:56:54;4.14;4.14;
62631;PMS5003;48703;51.248;-0.546;2022-09-01T04:59:56;3.67;3.44;
62631;PMS5003;48703;51.248;-0.546;2022-09-01T05:02:58;4.29;3.81;
62631;PMS5003;48703;51.248;-0.546;2022-09-01T05:05:59;3.89;3.59;
62631;PMS5003;48703;51.248;-0.546;2022-09-01T05:09:00;4.70;4.00;
62631;PMS5003;48703;51.248;-0.546;2022-09-01T05:12:02;5.67;3.99;
62631;PMS5003;48703;51.248;-0.546;2022-09-01T05:15:03;5.13;4.19;
62631;PMS5003;48703;51.248;-0.546;2022-09-01T05:18:05;5.64;4.70;
62631;PMS5003;48703;51.248;-0.546;2022-09-01T05:21:06;5.27;4.54;
62631;PMS5003;48703;51.248;-0.546;2022-09-01T05:24:07;4.76;4.76;
62631;PMS5003;48703;51.248;-0.546;2022-09-01T05:27:09;4.09;3.83;
62631;PMS5003;48703;51.248;-0.546;2022-09-01T05:30:11;6.06;4.20;
62631;PMS5003;48703;51.248;-0.546;2022-09-01T05:33:13;5.53;4.27;
62631;PMS5003;48703;51.248;-0.546;2022-09-01T05:36:14;4.97;3.69;
62631;PMS5003;48703;51.248;-0.546;2022-09-01T05:39:15;6.33;4.64;
62631;PMS5003;48703;51.248;-0.546;2022-09-01T05:42:16;5.00;4.56;
62631;PMS5003;48703;51.248;-0.546;2022-09-01T05:45:18;5.86;5.34;
62631;PMS5003;48703;51.248;-0.546;2022-09-01T05:48:19;4.50;3.99;
62631;PMS5003;48703;51.248;-0.546;2022-09-01T05:51:22;5.31;4.46;
62631;PMS5003;48703;51.248;-0.546;2022-09-01T05:54:23;4.94;4.47;
62631;PMS5003;48703;51.248;-0.546;2022-09-01T05:57:24;4.36;4.36;
62631;PMS5003;48703;51.248;-0.546;2022-09-01T06:00:25;6.17;3.89;
62631;PMS5003;48703;51.248;-0.546;2022-09-01T06:03:27;4.46;3.77;
62631;PMS5003;48703;51.248;-0.546;2022-09-01T06:06:29;5.17;4.51;
62631;PMS5003;48703;51.248;-0.546;2022-09-01T06:09:30;4.60;4.19;
62631;PMS5003;48703;51.248;-0.546;2022-09-01T06:12:32;4.24;3.59;
62631;PMS5003;48703;51.248;-0.546;2022-09-01T06:15:33;5.54;5.24;
62631;PMS5003;48703;51.248;-0.546;2022-09-01T06:18:34;4.37;4.37;
62631;PMS5003;48703;51.248;-0.546;2022-09-01T06:21:37;5.66;4.29;
62631;PMS5003;48703;51.248;-0.546;2022-09-01T06:24:37;5.29;4.99;
62631;PMS5003;48703;51.248;-0.546;2022-09-01T06:27:38;4.54;4.11;
62631;PMS5003;48703;51.248;-0.546;2022-09-01T06:30:40;3.91;3.91;
62631;PMS5003;48703;51.248;-0.546;2022-09-01T06:33:41;6.53;5.24;
62631;PMS5003;48703;51.248;-0.546;2022-09-01T06:36:43;4.76;4.27;
62631;PMS5003;48703;51.248;-0.546;2022-09-01T06:39:44;4.50;4.41;
62631;PMS5003;48703;51.248;-0.546;2022-09-01T06:42:46;6.27;3.91;
62631;PMS5003;48703;51.248;-0.546;2022-09-01T06:45:47;5.16;4.93;
62631;PMS5003;48703;51.248;-0.546;2022-09-01T06:48:49;4.53;4.19;
62631;PMS5003;48703;51.248;-0.546;2022-09-01T06:51:50;3.97;3.50;
62631;PMS5003;48703;51.248;-0.546;2022-09-01T06:54:52;4.94;4.63;
62631;PMS5003;48703;51.248;-0.546;2022-09-01T06:57:53;5.51;5.10;
62631;PMS5003;48703;51.248;-0.546;2022-09-01T07:00:54;4.70;4.41;
62631;PMS5003;48703;51.248;-0.546;2022-09-01T07:03:56;5.46;4.20;
62631;PMS5003;48703;51.248;-0.546;2022-09-01T07:06:57;4.97;4.76;
62631;PMS5003;48703;51.248;-0.546;2022-09-01T07:09:59;4.81;4.81;
62631;PMS5003;48703;51.248;-0.546;2022-09-01T07:13:00;4.86;4.39;
62631;PMS5003;48703;51.248;-0.546;2022-09-01T07:16:02;5.10;3.97;
62631;PMS5003;48703;51.248;-0.546;2022-09-01T07:19:03;4.89;4.24;
62631;PMS5003;48703;51.248;-0.546;2022-09-01T07:22:04;3.97;3.97;
62631;PMS5003;48703;51.248;-0.546;2022-09-01T07:25:06;4.71;3.90;
62631;PMS5003;48703;51.248;-0.546;2022-09-01T07:28:07;4.13;3.96;
62631;PMS5003;48703;51.248;-0.546;2022-09-01T07:31:15;4.39;4.17;
62631;PMS5003;48703;51.248;-0.546;2022-09-01T07:34:11;6.31;5.13;
62631;PMS5003;48703;51.248;-0.546;2022-09-01T07:37:12;5.09;4.34;
62631;PMS5003;48703;51.248;-0.546;2022-09-01T07:40:14;10.30;9.45;
62631;PMS5003;48703;51.248;-0.546;2022-09-01T07:43:15;8.76;8.76;
62631;PMS5003;48703;51.248;-0.546;2022-09-01T07:46:16;7.69;6.57;
62631;PMS5003;48703;51.248;-0.546;2022-09-01T07:49:17;5.84;5.13;
62631;PMS5003;48703;51.248;-0.546;2022-09-01T07:52:19;8.07;7.80;
62631;PMS5003;48703;51.248;-0.546;2022-09-01T07:55:20;6.44;6.16;
62631;PMS5003;48703;51.248;-0.546;2022-09-01T07:58:22;7.19;6.91;
62631;PMS5003;48703;51.248;-0.546;2022-09-01T08:01:24;7.39;5.64;
62631;PMS5003;48703;51.248;-0.546;2022-09-01T08:04:24;7.70;7.60;
62631;PMS5003;48703;51.248;-0.546;2022-09-01T08:07:26;6.97;6.67;
62631;PMS5003;48703;51.248;-0.546;2022-09-01T08:10:27;6.96;6.44;
62631;PMS5003;48703;51.248;-0.546;2022-09-01T08:13:29;6.30;5.87;
62631;PMS5003;48703;51.248;-0.546;2022-09-01T08:16:30;6.09;6.09;
62631;PMS5003;48703;51.248;-0.546;2022-09-01T08:19:31;6.33;6.22;
62631;PMS5003;48703;51.248;-0.546;2022-09-01T08:22:33;4.24;3.56;
62631;PMS5003;48703;51.248;-0.546;2022-09-01T08:25:35;5.91;5.16;
62631;PMS5003;48703;51.248;-0.546;2022-09-01T08:28:35;5.26;4.94;
62631;PMS5003;48703;51.248;-0.546;2022-09-01T08:31:37;4.79;4.60;
62631;PMS5003;48703;51.248;-0.546;2022-09-01T08:34:38;5.96;4.60;
62631;PMS5003;48703;51.248;-0.546;2022-09-01T08:37:40;4.41;4.06;
62631;PMS5003;48703;51.248;-0.546;2022-09-01T08:40:42;5.34;4.66;
62631;PMS5003;48703;51.248;-0.546;2022-09-01T08:43:46;4.67;4.44;
62631;PMS5003;48703;51.248;-0.546;2022-09-01T08:46:44;4.37;3.81;
62631;PMS5003;48703;51.248;-0.546;2022-09-01T08:49:46;4.16;3.94;
62631;PMS5003;48703;51.248;-0.546;2022-09-01T08:52:49;5.64;4.91;
62631;PMS5003;48703;51.248;-0.546;2022-09-01T08:55:50;4.10;3.90;
62631;PMS5003;48703;51.248;-0.546;2022-09-01T08:58:50;5.63;5.09;
62631;PMS5003;48703;51.248;-0.546;2022-09-01T09:01:53;5.23;4.07;
62631;PMS5003;48703;51.248;-0.546;2022-09-01T09:04:56;5.40;4.93;
62631;PMS5003;48703;51.248;-0.546;2022-09-01T09:07:59;6.33;5.30;
62631;PMS5003;48703;51.248;-0.546;2022-09-01T09:10:57;4.50;4.50;
62631;PMS5003;48703;51.248;-0.546;2022-09-01T09:13:59;4.66;4.17;
62631;PMS5003;48703;51.248;-0.546;2022-09-01T09:16:58;4.54;3.84;
62631;PMS5003;48703;51.248;-0.546;2022-09-01T09:20:00;4.96;4.90;
62631;PMS5003;48703;51.248;-0.546;2022-09-01T09:23:02;5.21;4.49;
62631;PMS5003;48703;51.248;-0.546;2022-09-01T09:26:03;4.19;3.89;
62631;PMS5003;48703;51.248;-0.546;2022-09-01T09:29:04;4.17;4.17;
62631;PMS5003;48703;51.248;-0.546;2022-09-01T09:32:06;5.07;4.63;
62631;PMS5003;48703;51.248;-0.546;2022-09-01T09:35:16;3.60;3.60;
62631;PMS5003;48703;51.248;-0.546;2022-09-01T09:38:15;4.71;4.23;
62631;PMS5003;48703;51.248;-0.546;2022-09-01T09:41:14;5.17;4.49;
62631;PMS5003;48703;51.248;-0.546;2022-09-01T09:44:15;4.77;4.63;
62631;PMS5003;48703;51.248;-0.546;2022-09-01T09:47:32;5.70;5.17;
62631;PMS5003;48703;51.248;-0.546;2022-09-01T09:50:18;5.70;5.47;
62631;PMS5003;48703;51.248;-0.546;2022-09-01T09:53:16;4.69;4.04;
62631;PMS5003;48703;51.248;-0.546;2022-09-01T09:56:18;4.60;4.13;
62631;PMS5003;48703;51.248;-0.546;2022-09-01T09:59:21;5.49;3.93;
62631;PMS5003;48703;51.248;-0.546;2022-09-01T10:02:23;5.13;4.46;
62631;PMS5003;48703;51.248;-0.546;2022-09-01T10:05:25;4.16;4.10;
62631;PMS5003;48703;51.248;-0.546;2022-09-01T10:08:35;5.34;5.04;
62631;PMS5003;48703;51.248;-0.546;2022-09-01T10:11:26;4.96;4.21;
62631;PMS5003;48703;51.248;-0.546;2022-09-01T10:14:27;4.47;3.97;
62631;PMS5003;48703;51.248;-0.546;2022-09-01T10:17:28;4.29;3.54;
62631;PMS5003;48703;51.248;-0.546;2022-09-01T10:20:27;5.42;5.12;
62631;PMS5003;48703;51.248;-0.546;2022-09-01T10:23:30;4.54;3.39;
62631;PMS5003;48703;51.248;-0.546;2022-09-01T10:26:31;4.39;4.39;
62631;PMS5003;48703;51.248;-0.546;2022-09-01T10:29:34;3.53;3.53;
62631;PMS5003;48703;51.248;-0.546;2022-09-01T10:32:36;5.46;3.84;
62631;PMS5003;48703;51.248;-0.546;2022-09-01T10:35:35;5.03;4.09;
62631;PMS5003;48703;51.248;-0.546;2022-09-01T10:38:36;4.00;4.00;
62631;PMS5003;48703;51.248;-0.546;2022-09-01T10:41:47;3.33;3.24;
62631;PMS5003;48703;51.248;-0.546;2022-09-01T10:44:53;4.23;3.79;
62631;PMS5003;48703;51.248;-0.546;2022-09-01T10:47:40;3.43;3.07;
62631;PMS5003;48703;51.248;-0.546;2022-09-01T10:50:42;4.66;3.89;
62631;PMS5003;48703;51.248;-0.546;2022-09-01T10:53:43;5.59;4.37;
62631;PMS5003;48703;51.248;-0.546;2022-09-01T10:56:45;4.81;3.99;
62631;PMS5003;48703;51.248;-0.546;2022-09-01T10:59:46;3.14;3.14;
62631;PMS5003;48703;51.248;-0.546;2022-09-01T11:02:54;4.24;4.24;
62631;PMS5003;48703;51.248;-0.546;2022-09-01T11:06:05;2.97;2.97;
62631;PMS5003;48703;51.248;-0.546;2022-09-01T11:08:55;2.73;2.73;
62631;PMS5003;48703;51.248;-0.546;2022-09-01T11:11:56;4.20;3.76;
62631;PMS5003;48703;51.248;-0.546;2022-09-01T11:14:53;3.93;3.46;
62631;PMS5003;48703;51.248;-0.546;2022-09-01T11:17:54;4.26;3.73;
62631;PMS5003;48703;51.248;-0.546;2022-09-01T11:21:03;2.53;2.53;
62631;PMS5003;48703;51.248;-0.546;2022-09-01T11:24:42;4.04;2.89;
62631;PMS5003;48703;51.248;-0.546;2022-09-01T11:26:58;3.40;3.40;
62631;PMS5003;48703;51.248;-0.546;2022-09-01T11:30:00;4.37;3.51;
62631;PMS5003;48703;51.248;-0.546;2022-09-01T11:33:05;4.80;4.59;
62631;PMS5003;48703;51.248;-0.546;2022-09-01T11:36:04;4.79;3.57;
62631;PMS5003;48703;51.248;-0.546;2022-09-01T11:39:06;3.47;3.21;
62631;PMS5003;48703;51.248;-0.546;2022-09-01T11:42:07;4.04;3.73;
62631;PMS5003;48703;51.248;-0.546;2022-09-01T11:45:13;3.57;2.94;
62631;PMS5003;48703;51.248;-0.546;2022-09-01T11:48:09;4.44;3.74;
62631;PMS5003;48703;51.248;-0.546;2022-09-01T11:51:09;4.50;3.86;
62631;PMS5003;48703;51.248;-0.546;2022-09-01T11:54:11;3.51;3.09;
62631;PMS5003;48703;51.248;-0.546;2022-09-01T11:57:16;3.37;2.86;
62631;PMS5003;48703;51.248;-0.546;2022-09-01T12:00:16;3.06;2.44;
62631;PMS5003;48703;51.248;-0.546;2022-09-01T12:03:18;3.13;3.13;
62631;PMS5003;48703;51.248;-0.546;2022-09-01T12:06:19;3.34;3.34;
62631;PMS5003;48703;51.248;-0.546;2022-09-01T12:09:18;3.69;3.69;
62631;PMS5003;48703;51.248;-0.546;2022-09-01T12:12:28;2.69;2.69;
62631;PMS5003;48703;51.248;-0.546;2022-09-01T12:15:20;4.26;4.04;
62631;PMS5003;48703;51.248;-0.546;2022-09-01T12:18:22;4.39;3.57;
62631;PMS5003;48703;51.248;-0.546;2022-09-01T12:21:24;3.76;3.76;
62631;PMS5003;48703;51.248;-0.546;2022-09-01T12:24:24;4.37;3.90;
62631;PMS5003;48703;51.248;-0.546;2022-09-01T12:27:25;4.57;3.84;
62631;PMS5003;48703;51.248;-0.546;2022-09-01T12:30:27;4.11;4.11;
62631;PMS5003;48703;51.248;-0.546;2022-09-01T12:33:28;4.11;3.76;
62631;PMS5003;48703;51.248;-0.546;2022-09-01T12:36:30;3.84;3.84;
62631;PMS5003;48703;51.248;-0.546;2022-09-01T12:39:32;4.24;4.01;
62631;PMS5003;48703;51.248;-0.546;2022-09-01T12:42:33;4.40;3.83;
62631;PMS5003;48703;51.248;-0.546;2022-09-01T12:45:41;3.84;3.16;
62631;PMS5003;48703;51.248;-0.546;2022-09-01T12:48:36;4.39;4.17;
62631;PMS5003;48703;51.248;-0.546;2022-09-01T12:51:36;5.30;5.00;
62631;PMS5003;48703;51.248;-0.546;2022-09-01T12:54:37;4.51;4.01;
62631;PMS5003;48703;51.248;-0.546;2022-09-01T12:57:39;4.91;4.46;
62631;PMS5003;48703;51.248;-0.546;2022-09-01T13:00:53;4.01;3.60;
62631;PMS5003;48703;51.248;-0.546;2022-09-01T13:03:41;4.51;4.17;
62631;PMS5003;48703;51.248;-0.546;2022-09-01T13:06:42;4.66;4.66;
62631;PMS5003;48703;51.248;-0.546;2022-09-01T13:09:44;4.94;4.34;
62631;PMS5003;48703;51.248;-0.546;2022-09-01T13:12:45;4.33;4.33;
62631;PMS5003;48703;51.248;-0.546;2022-09-01T13:15:48;4.43;4.14;
62631;PMS5003;48703;51.248;-0.546;2022-09-01T13:18:48;5.23;4.63;
62631;PMS5003;48703;51.248;-0.546;2022-09-01T13:21:49;3.99;3.99;
62631;PMS5003;48703;51.248;-0.546;2022-09-01T13:24:51;7.87;5.86;
62631;PMS5003;48703;51.248;-0.546;2022-09-01T13:27:52;4.53;4.53;
62631;PMS5003;48703;51.248;-0.546;2022-09-01T13:30:54;5.37;4.67;
62631;PMS5003;48703;51.248;-0.546;2022-09-01T13:33:55;4.53;4.37;
62631;PMS5003;48703;51.248;-0.546;2022-09-01T13:36:56;6.11;6.11;
62631;PMS5003;48703;51.248;-0.546;2022-09-01T13:39:58;6.96;6.01;
62631;PMS5003;48703;51.248;-0.546;2022-09-01T13:42:59;5.09;4.91;
62631;PMS5003;48703;51.248;-0.546;2022-09-01T13:46:00;4.80;4.80;
62631;PMS5003;48703;51.248;-0.546;2022-09-01T13:49:02;5.13;5.00;
62631;PMS5003;48703;51.248;-0.546;2022-09-01T13:52:03;7.11;6.31;
62631;PMS5003;48703;51.248;-0.546;2022-09-01T13:55:06;5.94;5.94;
62631;PMS5003;48703;51.248;-0.546;2022-09-01T13:58:06;6.73;5.74;
62631;PMS5003;48703;51.248;-0.546;2022-09-01T14:01:07;6.56;5.99;
62631;PMS5003;48703;51.248;-0.546;2022-09-01T14:04:08;5.83;5.67;
62631;PMS5003;48703;51.248;-0.546;2022-09-01T14:07:10;8.39;7.66;
62631;PMS5003;48703;51.248;-0.546;2022-09-01T14:10:11;6.39;6.39;
62631;PMS5003;48703;51.248;-0.546;2022-09-01T14:13:13;7.44;6.79;
62631;PMS5003;48703;51.248;-0.546;2022-09-01T14:16:14;6.79;6.16;
62631;PMS5003;48703;51.248;-0.546;2022-09-01T14:19:15;7.51;7.26;
62631;PMS5003;48703;51.248;-0.546;2022-09-01T14:22:17;6.56;6.56;
62631;PMS5003;48703;51.248;-0.546;2022-09-01T14:25:18;7.17;6.84;
62631;PMS5003;48703;51.248;-0.546;2022-09-01T14:28:20;6.59;6.34;
62631;PMS5003;48703;51.248;-0.546;2022-09-01T14:31:21;7.27;7.13;
62631;PMS5003;48703;51.248;-0.546;2022-09-01T14:34:22;7.51;6.87;
62631;PMS5003;48703;51.248;-0.546;2022-09-01T14:37:23;6.90;6.53;
62631;PMS5003;48703;51.248;-0.546;2022-09-01T14:40:25;8.39;7.73;
62631;PMS5003;48703;51.248;-0.546;2022-09-01T14:43:26;7.41;7.41;
62631;PMS5003;48703;51.248;-0.546;2022-09-01T14:46:27;7.09;7.09;
62631;PMS5003;48703;51.248;-0.546;2022-09-01T14:49:30;8.26;7.50;
62631;PMS5003;48703;51.248;-0.546;2022-09-01T14:52:30;9.03;8.59;
62631;PMS5003;48703;51.248;-0.546;2022-09-01T14:55:31;9.29;7.69;
62631;PMS5003;48703;51.248;-0.546;2022-09-01T14:58:33;8.99;7.74;
62631;PMS5003;48703;51.248;-0.546;2022-09-01T15:01:34;8.64;8.26;
62631;PMS5003;48703;51.248;-0.546;2022-09-01T15:04:35;9.23;8.36;
62631;PMS5003;48703;51.248;-0.546;2022-09-01T15:07:37;9.34;8.71;
62631;PMS5003;48703;51.248;-0.546;2022-09-01T15:10:38;8.60;8.01;
62631;PMS5003;48703;51.248;-0.546;2022-09-01T15:13:40;10.43;9.43;
62631;PMS5003;48703;51.248;-0.546;2022-09-01T15:16:41;9.83;9.51;
62631;PMS5003;48703;51.248;-0.546;2022-09-01T15:19:42;10.57;9.43;
62631;PMS5003;48703;51.248;-0.546;2022-09-01T15:22:44;10.00;9.50;
62631;PMS5003;48703;51.248;-0.546;2022-09-01T15:25:45;12.40;11.33;
62631;PMS5003;48703;51.248;-0.546;2022-09-01T15:28:47;10.11;9.64;
62631;PMS5003;48703;51.248;-0.546;2022-09-01T15:31:48;10.71;9.94;
62631;PMS5003;48703;51.248;-0.546;2022-09-01T15:34:49;11.61;10.81;
62631;PMS5003;48703;51.248;-0.546;2022-09-01T15:37:51;10.49;10.04;
62631;PMS5003;48703;51.248;-0.546;2022-09-01T15:40:52;12.21;11.66;
62631;PMS5003;48703;51.248;-0.546;2022-09-01T15:43:54;10.30;10.21;
62631;PMS5003;48703;51.248;-0.546;2022-09-01T15:46:55;12.83;11.64;
62631;PMS5003;48703;51.248;-0.546;2022-09-01T15:49:57;10.41;9.73;
62631;PMS5003;48703;51.248;-0.546;2022-09-01T15:52:59;12.30;11.47;
62631;PMS5003;48703;51.248;-0.546;2022-09-01T15:55:59;11.90;11.30;
62631;PMS5003;48703;51.248;-0.546;2022-09-01T15:59:02;13.57;11.26;
62631;PMS5003;48703;51.248;-0.546;2022-09-01T16:02:02;12.17;11.78;
62631;PMS5003;48703;51.248;-0.546;2022-09-01T16:05:04;13.09;13.09;
62631;PMS5003;48703;51.248;-0.546;2022-09-01T16:08:05;13.47;11.39;
62631;PMS5003;48703;51.248;-0.546;2022-09-01T16:11:06;11.30;11.00;
62631;PMS5003;48703;51.248;-0.546;2022-09-01T16:14:07;14.00;12.16;
62631;PMS5003;48703;51.248;-0.546;2022-09-01T16:17:10;11.10;11.10;
62631;PMS5003;48703;51.248;-0.546;2022-09-01T16:20:11;14.13;13.90;
62631;PMS5003;48703;51.248;-0.546;2022-09-01T16:23:12;11.61;11.57;
62631;PMS5003;48703;51.248;-0.546;2022-09-01T16:26:12;13.39;12.21;
62631;PMS5003;48703;51.248;-0.546;2022-09-01T16:29:15;12.41;12.24;
62631;PMS5003;48703;51.248;-0.546;2022-09-01T16:32:15;11.43;11.34;
62631;PMS5003;48703;51.248;-0.546;2022-09-01T16:35:16;12.91;12.26;
62631;PMS5003;48703;51.248;-0.546;2022-09-01T16:38:20;12.33;12.03;
62631;PMS5003;48703;51.248;-0.546;2022-09-01T16:41:24;13.43;13.07;
62631;PMS5003;48703;51.248;-0.546;2022-09-01T16:44:22;13.53;13.30;
62631;PMS5003;48703;51.248;-0.546;2022-09-01T16:47:24;13.55;13.14;
62631;PMS5003;48703;51.248;-0.546;2022-09-01T16:50:25;12.50;12.41;
62631;PMS5003;48703;51.248;-0.546;2022-09-01T16:53:28;14.03;13.09;
62631;PMS5003;48703;51.248;-0.546;2022-09-01T16:56:27;12.34;11.79;
62631;PMS5003;48703;51.248;-0.546;2022-09-01T16:59:29;13.29;12.38;
62631;PMS5003;48703;51.248;-0.546;2022-09-01T17:02:31;13.26;12.70;
62631;PMS5003;48703;51.248;-0.546;2022-09-01T17:05:29;12.89;11.87;
62631;PMS5003;48703;51.248;-0.546;2022-09-01T17:08:31;12.69;12.13;
62631;PMS5003;48703;51.248;-0.546;2022-09-01T17:11:31;10.81;10.81;
62631;PMS5003;48703;51.248;-0.546;2022-09-01T17:14:33;12.50;11.93;
62631;PMS5003;48703;51.248;-0.546;2022-09-01T17:17:37;12.06;11.86;
62631;PMS5003;48703;51.248;-0.546;2022-09-01T17:20:37;12.77;11.81;
62631;PMS5003;48703;51.248;-0.546;2022-09-01T17:23:38;12.43;11.71;
62631;PMS5003;48703;51.248;-0.546;2022-09-01T17:26:38;11.79;11.16;
62631;PMS5003;48703;51.248;-0.546;2022-09-01T17:29:40;12.47;11.91;
62631;PMS5003;48703;51.248;-0.546;2022-09-01T17:32:45;12.16;11.73;
62631;PMS5003;48703;51.248;-0.546;2022-09-01T17:35:43;12.30;11.93;
62631;PMS5003;48703;51.248;-0.546;2022-09-01T17:38:45;12.03;11.26;
62631;PMS5003;48703;51.248;-0.546;2022-09-01T17:41:46;13.74;12.24;
62631;PMS5003;48703;51.248;-0.546;2022-09-01T17:44:47;12.67;11.63;
62631;PMS5003;48703;51.248;-0.546;2022-09-01T17:47:50;11.70;10.64;
62631;PMS5003;48703;51.248;-0.546;2022-09-01T17:50:51;12.54;11.78;
62631;PMS5003;48703;51.248;-0.546;2022-09-01T17:53:52;13.80;12.83;
62631;PMS5003;48703;51.248;-0.546;2022-09-01T17:56:53;12.53;12.31;
62631;PMS5003;48703;51.248;-0.546;2022-09-01T17:59:53;11.80;11.51;
62631;PMS5003;48703;51.248;-0.546;2022-09-01T18:02:59;12.31;11.20;
62631;PMS5003;48703;51.248;-0.546;2022-09-01T18:05:57;12.04;11.13;
62631;PMS5003;48703;51.248;-0.546;2022-09-01T18:08:56;12.47;12.04;
62631;PMS5003;48703;51.248;-0.546;2022-09-01T18:11:59;12.64;11.89;
62631;PMS5003;48703;51.248;-0.546;2022-09-01T18:15:01;11.81;11.67;
62631;PMS5003;48703;51.248;-0.546;2022-09-01T18:18:03;12.17;11.66;
62631;PMS5003;48703;51.248;-0.546;2022-09-01T18:21:03;10.21;10.20;
62631;PMS5003;48703;51.248;-0.546;2022-09-01T18:24:05;11.81;11.48;